GCLPGMMI

Guest
Details From GCLP - Gran Canaria
To GMMI - MOGADOR INTL
Flight Number -
Tags generated
Created
Modified
Stats Distance 369 nm / 683 km
Max Altitude 35,000 ft / 10,668 m
Waypoints 7
Social Downloads 0
Likes 0
Share VATSIM

Download

Looking for another format? Having issues loading an existing format? Contact us
Advertisement - Login to hide

Notes

Basic altitude profile: - Ascent Rate: 2500ft/min - Ascent Speed: 250kts - Cruise Altitude: 35000ft - Cruise Speed: 420kts - Descent Rate: 1500ft/min - Descent Speed: 250kts Options: - Use NATs: yes - Use PACOTS: yes - Use low airways: yes - Use high airways: yes

Route

GCLP GDV G5 LZR UN871 KORAL UG5 SONSO G5 NISUR GMMI

ID Type Via Altitude Latitude Longitude Leg Dist Tot Dist Heading (true) Name
O GCLP APT - 0 ft / 0 m 27.93154˚ -15.38559˚ - 0 nm - Gran Canaria
GDV VOR - 3,200 ft / 975 m 28.07708˚ -15.42899˚ 9 nm 9 nm 345° / 345° GRAN CANARIA VOR-DME
LZR VOR G5 (AWY-LO) 23,500 ft / 7,163 m 29.16600˚ -13.51073˚ 120 nm 129 nm 57° / 58° LANZAROTE VOR-DME
KORAL FIX UN871 (AWY-HI) 35,000 ft / 10,668 m 29.73143˚ -12.57834˚ 59 nm 188 nm 55° / 55° -
SONSO FIX UG5 (AWY-HI) 31,100 ft / 9,479 m 30.01222˚ -12.10194˚ 29 nm 218 nm 56° / 56° -
NISUR FIX G5 (AWY-LO) 6,500 ft / 1,981 m 31.17889˚ -10.08333˚ 125 nm 344 nm 56° / 57° -
O GMMI APT - 0 ft / 0 m 31.39709˚ -9.68204˚ 24 nm 368 nm 57° / 58° MOGADOR INTL

Altitude Profile

Advertisement - Login to hide

Weather


0- 5 10 15 20 25 30 35+ Temperature / ° C

Clouds and Precipitation
Forecast for 2018-05-27 06:00 UTC. Updated 3 hours ago

Ground ~20,000 ft ~40,000 ft Winds

GCLP

Details ICAO GCLP (LPA)
Name Gran Canaria
Region Canary Islands
Timezone Atlantic/Canary (UTC+1.0)
Stats Elevation 77 ft / 23 m (AMSL)
Location 27.931544° -15.385592°
Runways 2
Magnetic Variation 4.633° W

METAR

GCLP 270830Z 01017KT 340V050 9999 FEW035 21/09 Q1020 NOSIG

Decode

TAF

TAF GCLP 270800Z 2709/2809 36018KT 9999 FEW030 TX24/2714Z TN17/2805Z

Decode

Departure Runways

ID Width Length Bearing (true) Bearing (mag) Surface Threshold Offset Overrun Length
03L 148 ft / 45 m 10,203 ft / 3,110 m 21.33° 25.96° Asphalt 0 ft / 0 m 656 ft / 200 m
03R 148 ft / 45 m 10,200 ft / 3,109 m 21.32° 25.95° Asphalt 0 ft / 0 m 673 ft / 205 m
21L 148 ft / 45 m 10,200 ft / 3,109 m 201.33° 205.96° Asphalt 0 ft / 0 m 689 ft / 210 m
21R 148 ft / 45 m 10,203 ft / 3,110 m 201.33° 205.96° Asphalt 0 ft / 0 m 755 ft / 230 m

GMMI

Details ICAO GMMI (ESU)
Name MOGADOR INTL
Region Morocco
Timezone Africa/Casablanca (UTC+0.0)
Stats Elevation 384 ft / 117 m (AMSL)
Location 31.397091° -9.682044°
Runways 1
Magnetic Variation 2.479° W

METAR

GMMI 270800Z 36006KT 6000 BKN012 19/14 Q1017 NOSIG

Decode

TAF

TAF GMMI 270500Z 2706/2812 34012KT 6000 NSC= TAF GMML 270500Z 2706/2812 36010KT 8000 SCT020

Decode

Destination Runways

ID Width Length Bearing (true) Bearing (mag) Surface Threshold Offset Overrun Length
16 148 ft / 45 m 6,868 ft / 2,093 m 158.80° 161.28° Asphalt 0 ft / 0 m 0 ft / 0 m
34 148 ft / 45 m 6,868 ft / 2,093 m 338.80° 341.28° Asphalt 0 ft / 0 m 0 ft / 0 m

Popular Alternatives